<?xml version="1.0" encoding="UTF-8" standalone="no" ?>
<gpx xmlns="http://www.topografix.com/GPX/1/1" xmlns:xsi="http://www.w3.org/2001/XMLSchema-instance" xsi:schemaLocation="http://www.topografix.com/GPX/1/1 http://www.topografix.com/GPX/1/1/gpx.xsd" version="1.1" creator="VisuGPX - https://www.visugpx.com">
  <metadata>
    <name>Course nature en forêt d\'Evreux 06/03/2012</name>
    <desc><![CDATA[Petit trail avec l\'équipe de Décathlon Evreux]]></desc>
  </metadata>
  <trk>
    <name><![CDATA[06-MARS-12 08:06:13 PM]]></name>
    <trkseg>
      <trkpt lat="49.0009" lon="1.15659">
        <ele>21.29</ele>
        <time>2012-03-06T19:14:10Z</time>
      </trkpt>
      <trkpt lat="49.00106" lon="1.15648">
        <ele>21.77</ele>
        <time>2012-03-06T19:14:33Z</time>
      </trkpt>
      <trkpt lat="49.00105" lon="1.15648">
        <ele>25.13</ele>
        <time>2012-03-06T19:14:38Z</time>
      </trkpt>
      <trkpt lat="49.00104" lon="1.15648">
        <ele>30.42</ele>
        <time>2012-03-06T19:14:40Z</time>
      </trkpt>
      <trkpt lat="49.00104" lon="1.15648">
        <ele>35.23</ele>
        <time>2012-03-06T19:14:41Z</time>
      </trkpt>
      <trkpt lat="49.00104" lon="1.15648">
        <ele>40.51</ele>
        <time>2012-03-06T19:14:43Z</time>
      </trkpt>
      <trkpt lat="49.00105" lon="1.15648">
        <ele>47.24</ele>
        <time>2012-03-06T19:14:45Z</time>
      </trkpt>
      <trkpt lat="49.00105" lon="1.15648">
        <ele>52.53</ele>
        <time>2012-03-06T19:14:46Z</time>
      </trkpt>
      <trkpt lat="49.00105" lon="1.15648">
        <ele>58.3</ele>
        <time>2012-03-06T19:14:48Z</time>
      </trkpt>
      <trkpt lat="49.00105" lon="1.15648">
        <ele>57.34</ele>
        <time>2012-03-06T19:14:49Z</time>
      </trkpt>
      <trkpt lat="49.00105" lon="1.15648">
        <ele>63.1</ele>
        <time>2012-03-06T19:14:50Z</time>
      </trkpt>
      <trkpt lat="49.00105" lon="1.15649">
        <ele>66.47</ele>
        <time>2012-03-06T19:14:52Z</time>
      </trkpt>
      <trkpt lat="49.00105" lon="1.1565">
        <ele>71.27</ele>
        <time>2012-03-06T19:14:54Z</time>
      </trkpt>
      <trkpt lat="49.00106" lon="1.1565">
        <ele>75.6</ele>
        <time>2012-03-06T19:14:56Z</time>
      </trkpt>
      <trkpt lat="49.00106" lon="1.15649">
        <ele>79.45</ele>
        <time>2012-03-06T19:14:58Z</time>
      </trkpt>
      <trkpt lat="49.00106" lon="1.15649">
        <ele>85.69</ele>
        <time>2012-03-06T19:15:01Z</time>
      </trkpt>
      <trkpt lat="49.00106" lon="1.15647">
        <ele>90.02</ele>
        <time>2012-03-06T19:15:04Z</time>
      </trkpt>
      <trkpt lat="49.00106" lon="1.15646">
        <ele>94.35</ele>
        <time>2012-03-06T19:15:07Z</time>
      </trkpt>
      <trkpt lat="49.00106" lon="1.15645">
        <ele>98.19</ele>
        <time>2012-03-06T19:15:10Z</time>
      </trkpt>
      <trkpt lat="49.00106" lon="1.15645">
        <ele>102.04</ele>
        <time>2012-03-06T19:15:13Z</time>
      </trkpt>
      <trkpt lat="49.00107" lon="1.15644">
        <ele>105.4</ele>
        <time>2012-03-06T19:15:16Z</time>
      </trkpt>
      <trkpt lat="49.00105" lon="1.15646">
        <ele>108.77</ele>
        <time>2012-03-06T19:15:20Z</time>
      </trkpt>
      <trkpt lat="49.00105" lon="1.15647">
        <ele>112.61</ele>
        <time>2012-03-06T19:15:24Z</time>
      </trkpt>
      <trkpt lat="49.00105" lon="1.15649">
        <ele>115.98</ele>
        <time>2012-03-06T19:15:28Z</time>
      </trkpt>
      <trkpt lat="49.00105" lon="1.15652">
        <ele>118.38</ele>
        <time>2012-03-06T19:15:32Z</time>
      </trkpt>
      <trkpt lat="49.00106" lon="1.15651">
        <ele>122.22</ele>
        <time>2012-03-06T19:15:38Z</time>
      </trkpt>
      <trkpt lat="49.00106" lon="1.15651">
        <ele>122.22</ele>
        <time>2012-03-06T19:15:39Z</time>
      </trkpt>
      <trkpt lat="49.00106" lon="1.15651">
        <ele>125.59</ele>
        <time>2012-03-06T19:15:46Z</time>
      </trkpt>
      <trkpt lat="49.00106" lon="1.15651">
        <ele>128.95</ele>
        <time>2012-03-06T19:15:54Z</time>
      </trkpt>
      <trkpt lat="49.00106" lon="1.15651">
        <ele>131.84</ele>
        <time>2012-03-06T19:16:09Z</time>
      </trkpt>
      <trkpt lat="49.00106" lon="1.15651">
        <ele>133.76</ele>
        <time>2012-03-06T19:16:25Z</time>
      </trkpt>
      <trkpt lat="49.00107" lon="1.15652">
        <ele>134.72</ele>
        <time>2012-03-06T19:16:43Z</time>
      </trkpt>
      <trkpt lat="49.00107" lon="1.15654">
        <ele>135.2</ele>
        <time>2012-03-06T19:16:56Z</time>
      </trkpt>
      <trkpt lat="49.00107" lon="1.15654">
        <ele>135.2</ele>
        <time>2012-03-06T19:17:11Z</time>
      </trkpt>
      <trkpt lat="49.00107" lon="1.15653">
        <ele>135.2</ele>
        <time>2012-03-06T19:17:24Z</time>
      </trkpt>
      <trkpt lat="49.00106" lon="1.15651">
        <ele>135.68</ele>
        <time>2012-03-06T19:17:37Z</time>
      </trkpt>
      <trkpt lat="49.00107" lon="1.15653">
        <ele>135.2</ele>
        <time>2012-03-06T19:17:47Z</time>
      </trkpt>
      <trkpt lat="49.0011" lon="1.15666">
        <ele>135.2</ele>
        <time>2012-03-06T19:18:00Z</time>
      </trkpt>
      <trkpt lat="49.00113" lon="1.15668">
        <ele>135.2</ele>
        <time>2012-03-06T19:18:16Z</time>
      </trkpt>
      <trkpt lat="49.00119" lon="1.15667">
        <ele>135.2</ele>
        <time>2012-03-06T19:18:30Z</time>
      </trkpt>
      <trkpt lat="49.00119" lon="1.15667">
        <ele>135.2</ele>
        <time>2012-03-06T19:18:48Z</time>
      </trkpt>
      <trkpt lat="49.00121" lon="1.15664">
        <ele>135.68</ele>
        <time>2012-03-06T19:19:05Z</time>
      </trkpt>
      <trkpt lat="49.00133" lon="1.15645">
        <ele>135.68</ele>
        <time>2012-03-06T19:19:16Z</time>
      </trkpt>
      <trkpt lat="49.00139" lon="1.15632">
        <ele>135.2</ele>
        <time>2012-03-06T19:19:20Z</time>
      </trkpt>
      <trkpt lat="49.00151" lon="1.15613">
        <ele>135.2</ele>
        <time>2012-03-06T19:19:26Z</time>
      </trkpt>
      <trkpt lat="49.00172" lon="1.1558">
        <ele>134.72</ele>
        <time>2012-03-06T19:19:38Z</time>
      </trkpt>
      <trkpt lat="49.00187" lon="1.15553">
        <ele>135.2</ele>
        <time>2012-03-06T19:19:47Z</time>
      </trkpt>
      <trkpt lat="49.00186" lon="1.15512">
        <ele>136.16</ele>
        <time>2012-03-06T19:19:58Z</time>
      </trkpt>
      <trkpt lat="49.00171" lon="1.15466">
        <ele>136.64</ele>
        <time>2012-03-06T19:20:09Z</time>
      </trkpt>
      <trkpt lat="49.00167" lon="1.1545">
        <ele>136.16</ele>
        <time>2012-03-06T19:20:14Z</time>
      </trkpt>
      <trkpt lat="49.00162" lon="1.15431">
        <ele>136.16</ele>
        <time>2012-03-06T19:20:19Z</time>
      </trkpt>
      <trkpt lat="49.00153" lon="1.15385">
        <ele>136.16</ele>
        <time>2012-03-06T19:20:31Z</time>
      </trkpt>
      <trkpt lat="49.00151" lon="1.15376">
        <ele>136.64</ele>
        <time>2012-03-06T19:20:33Z</time>
      </trkpt>
      <trkpt lat="49.00144" lon="1.15348">
        <ele>137.61</ele>
        <time>2012-03-06T19:20:41Z</time>
      </trkpt>
      <trkpt lat="49.00134" lon="1.15334">
        <ele>138.09</ele>
        <time>2012-03-06T19:20:49Z</time>
      </trkpt>
      <trkpt lat="49.001" lon="1.15337">
        <ele>138.09</ele>
        <time>2012-03-06T19:20:59Z</time>
      </trkpt>
      <trkpt lat="49.00063" lon="1.15353">
        <ele>139.05</ele>
        <time>2012-03-06T19:21:10Z</time>
      </trkpt>
      <trkpt lat="49.00029" lon="1.1537">
        <ele>140.01</ele>
        <time>2012-03-06T19:21:22Z</time>
      </trkpt>
      <trkpt lat="49" lon="1.15383">
        <ele>140.01</ele>
        <time>2012-03-06T19:21:32Z</time>
      </trkpt>
      <trkpt lat="48.99966" lon="1.15402">
        <ele>140.49</ele>
        <time>2012-03-06T19:21:44Z</time>
      </trkpt>
      <trkpt lat="48.99936" lon="1.15396">
        <ele>140.97</ele>
        <time>2012-03-06T19:21:54Z</time>
      </trkpt>
      <trkpt lat="48.99902" lon="1.15378">
        <ele>140.97</ele>
        <time>2012-03-06T19:22:06Z</time>
      </trkpt>
      <trkpt lat="48.9987" lon="1.15372">
        <ele>140.01</ele>
        <time>2012-03-06T19:22:17Z</time>
      </trkpt>
      <trkpt lat="48.99862" lon="1.15329">
        <ele>140.01</ele>
        <time>2012-03-06T19:22:26Z</time>
      </trkpt>
      <trkpt lat="48.99855" lon="1.15276">
        <ele>140.49</ele>
        <time>2012-03-06T19:22:37Z</time>
      </trkpt>
      <trkpt lat="48.99854" lon="1.1525">
        <ele>140.49</ele>
        <time>2012-03-06T19:22:43Z</time>
      </trkpt>
      <trkpt lat="48.99852" lon="1.1524">
        <ele>140.49</ele>
        <time>2012-03-06T19:22:45Z</time>
      </trkpt>
      <trkpt lat="48.99848" lon="1.15198">
        <ele>140.01</ele>
        <time>2012-03-06T19:22:54Z</time>
      </trkpt>
      <trkpt lat="48.99838" lon="1.15161">
        <ele>140.49</ele>
        <time>2012-03-06T19:23:03Z</time>
      </trkpt>
      <trkpt lat="48.99826" lon="1.15124">
        <ele>140.01</ele>
        <time>2012-03-06T19:23:12Z</time>
      </trkpt>
      <trkpt lat="48.99825" lon="1.1512">
        <ele>140.01</ele>
        <time>2012-03-06T19:23:13Z</time>
      </trkpt>
      <trkpt lat="48.99809" lon="1.15074">
        <ele>139.53</ele>
        <time>2012-03-06T19:23:24Z</time>
      </trkpt>
      <trkpt lat="48.99797" lon="1.15031">
        <ele>139.53</ele>
        <time>2012-03-06T19:23:33Z</time>
      </trkpt>
      <trkpt lat="48.99795" lon="1.14985">
        <ele>139.05</ele>
        <time>2012-03-06T19:23:43Z</time>
      </trkpt>
      <trkpt lat="48.99803" lon="1.14937">
        <ele>138.09</ele>
        <time>2012-03-06T19:23:54Z</time>
      </trkpt>
      <trkpt lat="48.99814" lon="1.14914">
        <ele>138.09</ele>
        <time>2012-03-06T19:24:00Z</time>
      </trkpt>
      <trkpt lat="48.99823" lon="1.14902">
        <ele>137.61</ele>
        <time>2012-03-06T19:24:04Z</time>
      </trkpt>
      <trkpt lat="48.99824" lon="1.14892">
        <ele>137.61</ele>
        <time>2012-03-06T19:24:06Z</time>
      </trkpt>
      <trkpt lat="48.99832" lon="1.14858">
        <ele>137.61</ele>
        <time>2012-03-06T19:24:15Z</time>
      </trkpt>
      <trkpt lat="48.9983" lon="1.14833">
        <ele>137.13</ele>
        <time>2012-03-06T19:24:22Z</time>
      </trkpt>
      <trkpt lat="48.99832" lon="1.14794">
        <ele>137.13</ele>
        <time>2012-03-06T19:24:29Z</time>
      </trkpt>
      <trkpt lat="48.99832" lon="1.14767">
        <ele>136.64</ele>
        <time>2012-03-06T19:24:35Z</time>
      </trkpt>
      <trkpt lat="48.99822" lon="1.14721">
        <ele>136.16</ele>
        <time>2012-03-06T19:24:45Z</time>
      </trkpt>
      <trkpt lat="48.99795" lon="1.14689">
        <ele>135.68</ele>
        <time>2012-03-06T19:24:56Z</time>
      </trkpt>
      <trkpt lat="48.99768" lon="1.14667">
        <ele>135.68</ele>
        <time>2012-03-06T19:25:07Z</time>
      </trkpt>
      <trkpt lat="48.99744" lon="1.14641">
        <ele>136.16</ele>
        <time>2012-03-06T19:25:17Z</time>
      </trkpt>
      <trkpt lat="48.99713" lon="1.14615">
        <ele>135.2</ele>
        <time>2012-03-06T19:25:28Z</time>
      </trkpt>
      <trkpt lat="48.99672" lon="1.14572">
        <ele>135.68</ele>
        <time>2012-03-06T19:25:44Z</time>
      </trkpt>
      <trkpt lat="48.99646" lon="1.14548">
        <ele>135.68</ele>
        <time>2012-03-06T19:25:55Z</time>
      </trkpt>
      <trkpt lat="48.99619" lon="1.14521">
        <ele>135.2</ele>
        <time>2012-03-06T19:26:07Z</time>
      </trkpt>
      <trkpt lat="48.9959" lon="1.14488">
        <ele>135.2</ele>
        <time>2012-03-06T19:26:18Z</time>
      </trkpt>
      <trkpt lat="48.99561" lon="1.14463">
        <ele>135.2</ele>
        <time>2012-03-06T19:26:28Z</time>
      </trkpt>
      <trkpt lat="48.99536" lon="1.14438">
        <ele>134.24</ele>
        <time>2012-03-06T19:26:38Z</time>
      </trkpt>
      <trkpt lat="48.99522" lon="1.14401">
        <ele>134.24</ele>
        <time>2012-03-06T19:26:48Z</time>
      </trkpt>
      <trkpt lat="48.99512" lon="1.14352">
        <ele>134.72</ele>
        <time>2012-03-06T19:27:01Z</time>
      </trkpt>
      <trkpt lat="48.99499" lon="1.14313">
        <ele>135.2</ele>
        <time>2012-03-06T19:27:13Z</time>
      </trkpt>
      <trkpt lat="48.99488" lon="1.14287">
        <ele>135.2</ele>
        <time>2012-03-06T19:27:25Z</time>
      </trkpt>
      <trkpt lat="48.99479" lon="1.14265">
        <ele>135.68</ele>
        <time>2012-03-06T19:27:33Z</time>
      </trkpt>
      <trkpt lat="48.99475" lon="1.14249">
        <ele>136.16</ele>
        <time>2012-03-06T19:27:41Z</time>
      </trkpt>
      <trkpt lat="48.99472" lon="1.14241">
        <ele>136.16</ele>
        <time>2012-03-06T19:27:45Z</time>
      </trkpt>
      <trkpt lat="48.99467" lon="1.14216">
        <ele>136.16</ele>
        <time>2012-03-06T19:27:51Z</time>
      </trkpt>
      <trkpt lat="48.9946" lon="1.14167">
        <ele>137.13</ele>
        <time>2012-03-06T19:28:06Z</time>
      </trkpt>
      <trkpt lat="48.99453" lon="1.14116">
        <ele>138.09</ele>
        <time>2012-03-06T19:28:20Z</time>
      </trkpt>
      <trkpt lat="48.9944" lon="1.1405">
        <ele>138.57</ele>
        <time>2012-03-06T19:28:34Z</time>
      </trkpt>
      <trkpt lat="48.99416" lon="1.13968">
        <ele>138.09</ele>
        <time>2012-03-06T19:28:49Z</time>
      </trkpt>
      <trkpt lat="48.99405" lon="1.13919">
        <ele>137.61</ele>
        <time>2012-03-06T19:29:01Z</time>
      </trkpt>
      <trkpt lat="48.99395" lon="1.1386">
        <ele>138.09</ele>
        <time>2012-03-06T19:29:15Z</time>
      </trkpt>
      <trkpt lat="48.99382" lon="1.13802">
        <ele>137.13</ele>
        <time>2012-03-06T19:29:28Z</time>
      </trkpt>
      <trkpt lat="48.99368" lon="1.13752">
        <ele>135.2</ele>
        <time>2012-03-06T19:29:40Z</time>
      </trkpt>
      <trkpt lat="48.99355" lon="1.13691">
        <ele>135.2</ele>
        <time>2012-03-06T19:29:54Z</time>
      </trkpt>
      <trkpt lat="48.99345" lon="1.13646">
        <ele>134.24</ele>
        <time>2012-03-06T19:30:05Z</time>
      </trkpt>
      <trkpt lat="48.99333" lon="1.13596">
        <ele>133.28</ele>
        <time>2012-03-06T19:30:16Z</time>
      </trkpt>
      <trkpt lat="48.99323" lon="1.13551">
        <ele>133.28</ele>
        <time>2012-03-06T19:30:25Z</time>
      </trkpt>
      <trkpt lat="48.99314" lon="1.13514">
        <ele>132.8</ele>
        <time>2012-03-06T19:30:34Z</time>
      </trkpt>
      <trkpt lat="48.99307" lon="1.13467">
        <ele>133.28</ele>
        <time>2012-03-06T19:30:44Z</time>
      </trkpt>
      <trkpt lat="48.99295" lon="1.13409">
        <ele>132.32</ele>
        <time>2012-03-06T19:30:55Z</time>
      </trkpt>
      <trkpt lat="48.99286" lon="1.13357">
        <ele>130.88</ele>
        <time>2012-03-06T19:31:05Z</time>
      </trkpt>
      <trkpt lat="48.99278" lon="1.13305">
        <ele>129.92</ele>
        <time>2012-03-06T19:31:14Z</time>
      </trkpt>
      <trkpt lat="48.9927" lon="1.13279">
        <ele>129.43</ele>
        <time>2012-03-06T19:31:19Z</time>
      </trkpt>
      <trkpt lat="48.99268" lon="1.13273">
        <ele>129.43</ele>
        <time>2012-03-06T19:31:20Z</time>
      </trkpt>
      <trkpt lat="48.99266" lon="1.13267">
        <ele>129.43</ele>
        <time>2012-03-06T19:31:21Z</time>
      </trkpt>
      <trkpt lat="48.99265" lon="1.1326">
        <ele>128.95</ele>
        <time>2012-03-06T19:31:22Z</time>
      </trkpt>
      <trkpt lat="48.99263" lon="1.13253">
        <ele>128.95</ele>
        <time>2012-03-06T19:31:23Z</time>
      </trkpt>
      <trkpt lat="48.99261" lon="1.13246">
        <ele>128.95</ele>
        <time>2012-03-06T19:31:24Z</time>
      </trkpt>
      <trkpt lat="48.99257" lon="1.13227">
        <ele>127.99</ele>
        <time>2012-03-06T19:31:27Z</time>
      </trkpt>
      <trkpt lat="48.99255" lon="1.13221">
        <ele>127.99</ele>
        <time>2012-03-06T19:31:28Z</time>
      </trkpt>
      <trkpt lat="48.99254" lon="1.13215">
        <ele>127.51</ele>
        <time>2012-03-06T19:31:29Z</time>
      </trkpt>
      <trkpt lat="48.99252" lon="1.1321">
        <ele>127.51</ele>
        <time>2012-03-06T19:31:30Z</time>
      </trkpt>
      <trkpt lat="48.9925" lon="1.13204">
        <ele>127.51</ele>
        <time>2012-03-06T19:31:31Z</time>
      </trkpt>
      <trkpt lat="48.99235" lon="1.13153">
        <ele>126.07</ele>
        <time>2012-03-06T19:31:39Z</time>
      </trkpt>
      <trkpt lat="48.9922" lon="1.13098">
        <ele>123.67</ele>
        <time>2012-03-06T19:31:49Z</time>
      </trkpt>
      <trkpt lat="48.99207" lon="1.13036">
        <ele>122.22</ele>
        <time>2012-03-06T19:32:02Z</time>
      </trkpt>
      <trkpt lat="48.99188" lon="1.12988">
        <ele>121.74</ele>
        <time>2012-03-06T19:32:14Z</time>
      </trkpt>
      <trkpt lat="48.99178" lon="1.12939">
        <ele>120.78</ele>
        <time>2012-03-06T19:32:25Z</time>
      </trkpt>
      <trkpt lat="48.99171" lon="1.12897">
        <ele>120.3</ele>
        <time>2012-03-06T19:32:36Z</time>
      </trkpt>
      <trkpt lat="48.99155" lon="1.12852">
        <ele>119.82</ele>
        <time>2012-03-06T19:32:46Z</time>
      </trkpt>
      <trkpt lat="48.99141" lon="1.12792">
        <ele>119.82</ele>
        <time>2012-03-06T19:32:58Z</time>
      </trkpt>
      <trkpt lat="48.99141" lon="1.12788">
        <ele>119.82</ele>
        <time>2012-03-06T19:32:59Z</time>
      </trkpt>
      <trkpt lat="48.99143" lon="1.12785">
        <ele>119.34</ele>
        <time>2012-03-06T19:33:01Z</time>
      </trkpt>
      <trkpt lat="48.99168" lon="1.12777">
        <ele>117.9</ele>
        <time>2012-03-06T19:33:15Z</time>
      </trkpt>
      <trkpt lat="48.99196" lon="1.12765">
        <ele>117.9</ele>
        <time>2012-03-06T19:33:28Z</time>
      </trkpt>
      <trkpt lat="48.99203" lon="1.12767">
        <ele>117.42</ele>
        <time>2012-03-06T19:33:32Z</time>
      </trkpt>
      <trkpt lat="48.99205" lon="1.12767">
        <ele>117.9</ele>
        <time>2012-03-06T19:33:33Z</time>
      </trkpt>
      <trkpt lat="48.99208" lon="1.12767">
        <ele>117.9</ele>
        <time>2012-03-06T19:33:34Z</time>
      </trkpt>
      <trkpt lat="48.99212" lon="1.12765">
        <ele>117.42</ele>
        <time>2012-03-06T19:33:35Z</time>
      </trkpt>
      <trkpt lat="48.99231" lon="1.12741">
        <ele>115.98</ele>
        <time>2012-03-06T19:33:43Z</time>
      </trkpt>
      <trkpt lat="48.99233" lon="1.12738">
        <ele>116.46</ele>
        <time>2012-03-06T19:33:44Z</time>
      </trkpt>
      <trkpt lat="48.99235" lon="1.12736">
        <ele>116.46</ele>
        <time>2012-03-06T19:33:45Z</time>
      </trkpt>
      <trkpt lat="48.99236" lon="1.12731">
        <ele>116.46</ele>
        <time>2012-03-06T19:33:46Z</time>
      </trkpt>
      <trkpt lat="48.99236" lon="1.12727">
        <ele>115.98</ele>
        <time>2012-03-06T19:33:47Z</time>
      </trkpt>
      <trkpt lat="48.99237" lon="1.12722">
        <ele>116.46</ele>
        <time>2012-03-06T19:33:48Z</time>
      </trkpt>
      <trkpt lat="48.99237" lon="1.12718">
        <ele>115.98</ele>
        <time>2012-03-06T19:33:49Z</time>
      </trkpt>
      <trkpt lat="48.99239" lon="1.12713">
        <ele>115.98</ele>
        <time>2012-03-06T19:33:50Z</time>
      </trkpt>
      <trkpt lat="48.99239" lon="1.12707">
        <ele>115.5</ele>
        <time>2012-03-06T19:33:51Z</time>
      </trkpt>
      <trkpt lat="48.99239" lon="1.12701">
        <ele>115.98</ele>
        <time>2012-03-06T19:33:52Z</time>
      </trkpt>
      <trkpt lat="48.99239" lon="1.12695">
        <ele>115.5</ele>
        <time>2012-03-06T19:33:53Z</time>
      </trkpt>
      <trkpt lat="48.99239" lon="1.1269">
        <ele>115.5</ele>
        <time>2012-03-06T19:33:54Z</time>
      </trkpt>
      <trkpt lat="48.9924" lon="1.12648">
        <ele>115.01</ele>
        <time>2012-03-06T19:34:03Z</time>
      </trkpt>
      <trkpt lat="48.9924" lon="1.1261">
        <ele>114.53</ele>
        <time>2012-03-06T19:34:12Z</time>
      </trkpt>
      <trkpt lat="48.99239" lon="1.12581">
        <ele>115.01</ele>
        <time>2012-03-06T19:34:19Z</time>
      </trkpt>
      <trkpt lat="48.99239" lon="1.12578">
        <ele>115.01</ele>
        <time>2012-03-06T19:34:20Z</time>
      </trkpt>
      <trkpt lat="48.99238" lon="1.12573">
        <ele>114.53</ele>
        <time>2012-03-06T19:34:21Z</time>
      </trkpt>
      <trkpt lat="48.99237" lon="1.12567">
        <ele>114.53</ele>
        <time>2012-03-06T19:34:22Z</time>
      </trkpt>
      <trkpt lat="48.99237" lon="1.12561">
        <ele>114.05</ele>
        <time>2012-03-06T19:34:23Z</time>
      </trkpt>
      <trkpt lat="48.99237" lon="1.12554">
        <ele>114.53</ele>
        <time>2012-03-06T19:34:24Z</time>
      </trkpt>
      <trkpt lat="48.99236" lon="1.12493">
        <ele>114.05</ele>
        <time>2012-03-06T19:34:35Z</time>
      </trkpt>
      <trkpt lat="48.99236" lon="1.12463">
        <ele>114.05</ele>
        <time>2012-03-06T19:34:40Z</time>
      </trkpt>
      <trkpt lat="48.9924" lon="1.124">
        <ele>114.05</ele>
        <time>2012-03-06T19:34:53Z</time>
      </trkpt>
      <trkpt lat="48.99249" lon="1.12339">
        <ele>113.09</ele>
        <time>2012-03-06T19:35:04Z</time>
      </trkpt>
      <trkpt lat="48.99252" lon="1.12324">
        <ele>112.61</ele>
        <time>2012-03-06T19:35:07Z</time>
      </trkpt>
      <trkpt lat="48.99254" lon="1.12322">
        <ele>112.61</ele>
        <time>2012-03-06T19:35:08Z</time>
      </trkpt>
      <trkpt lat="48.99255" lon="1.12317">
        <ele>112.13</ele>
        <time>2012-03-06T19:35:09Z</time>
      </trkpt>
      <trkpt lat="48.9927" lon="1.12269">
        <ele>110.69</ele>
        <time>2012-03-06T19:35:20Z</time>
      </trkpt>
      <trkpt lat="48.99285" lon="1.12233">
        <ele>110.69</ele>
        <time>2012-03-06T19:35:31Z</time>
      </trkpt>
      <trkpt lat="48.99301" lon="1.12196">
        <ele>111.65</ele>
        <time>2012-03-06T19:35:40Z</time>
      </trkpt>
      <trkpt lat="48.99303" lon="1.12192">
        <ele>112.13</ele>
        <time>2012-03-06T19:35:41Z</time>
      </trkpt>
      <trkpt lat="48.99336" lon="1.1217">
        <ele>115.5</ele>
        <time>2012-03-06T19:35:53Z</time>
      </trkpt>
      <trkpt lat="48.99374" lon="1.12156">
        <ele>117.42</ele>
        <time>2012-03-06T19:36:06Z</time>
      </trkpt>
      <trkpt lat="48.9941" lon="1.12147">
        <ele>118.38</ele>
        <time>2012-03-06T19:36:18Z</time>
      </trkpt>
      <trkpt lat="48.99455" lon="1.12142">
        <ele>119.34</ele>
        <time>2012-03-06T19:36:32Z</time>
      </trkpt>
      <trkpt lat="48.99489" lon="1.12128">
        <ele>120.3</ele>
        <time>2012-03-06T19:36:44Z</time>
      </trkpt>
      <trkpt lat="48.9952" lon="1.12106">
        <ele>120.78</ele>
        <time>2012-03-06T19:36:56Z</time>
      </trkpt>
      <trkpt lat="48.99561" lon="1.12094">
        <ele>121.26</ele>
        <time>2012-03-06T19:37:10Z</time>
      </trkpt>
      <trkpt lat="48.996" lon="1.12078">
        <ele>121.26</ele>
        <time>2012-03-06T19:37:24Z</time>
      </trkpt>
      <trkpt lat="48.99608" lon="1.12087">
        <ele>121.26</ele>
        <time>2012-03-06T19:37:29Z</time>
      </trkpt>
      <trkpt lat="48.99624" lon="1.12103">
        <ele>122.22</ele>
        <time>2012-03-06T19:37:38Z</time>
      </trkpt>
      <trkpt lat="48.99627" lon="1.1215">
        <ele>122.71</ele>
        <time>2012-03-06T19:37:49Z</time>
      </trkpt>
      <trkpt lat="48.99628" lon="1.12159">
        <ele>122.71</ele>
        <time>2012-03-06T19:37:52Z</time>
      </trkpt>
      <trkpt lat="48.99633" lon="1.12192">
        <ele>128.95</ele>
        <time>2012-03-06T19:37:59Z</time>
      </trkpt>
      <trkpt lat="48.99634" lon="1.12198">
        <ele>125.11</ele>
        <time>2012-03-06T19:38:00Z</time>
      </trkpt>
      <trkpt lat="48.99637" lon="1.12206">
        <ele>122.71</ele>
        <time>2012-03-06T19:38:02Z</time>
      </trkpt>
      <trkpt lat="48.99638" lon="1.12226">
        <ele>121.26</ele>
        <time>2012-03-06T19:38:04Z</time>
      </trkpt>
      <trkpt lat="48.99638" lon="1.12246">
        <ele>126.55</ele>
        <time>2012-03-06T19:38:08Z</time>
      </trkpt>
      <trkpt lat="48.99638" lon="1.12253">
        <ele>122.71</ele>
        <time>2012-03-06T19:38:09Z</time>
      </trkpt>
      <trkpt lat="48.99639" lon="1.12275">
        <ele>116.46</ele>
        <time>2012-03-06T19:38:13Z</time>
      </trkpt>
      <trkpt lat="48.99639" lon="1.1228">
        <ele>123.67</ele>
        <time>2012-03-06T19:38:14Z</time>
      </trkpt>
      <trkpt lat="48.99642" lon="1.12323">
        <ele>121.26</ele>
        <time>2012-03-06T19:38:24Z</time>
      </trkpt>
      <trkpt lat="48.99642" lon="1.1233">
        <ele>117.42</ele>
        <time>2012-03-06T19:38:26Z</time>
      </trkpt>
      <trkpt lat="48.99643" lon="1.12334">
        <ele>122.71</ele>
        <time>2012-03-06T19:38:27Z</time>
      </trkpt>
      <trkpt lat="48.99646" lon="1.12344">
        <ele>121.26</ele>
        <time>2012-03-06T19:38:30Z</time>
      </trkpt>
      <trkpt lat="48.99668" lon="1.12381">
        <ele>122.22</ele>
        <time>2012-03-06T19:38:43Z</time>
      </trkpt>
      <trkpt lat="48.99688" lon="1.12428">
        <ele>122.22</ele>
        <time>2012-03-06T19:38:57Z</time>
      </trkpt>
      <trkpt lat="48.99692" lon="1.12438">
        <ele>122.71</ele>
        <time>2012-03-06T19:39:00Z</time>
      </trkpt>
      <trkpt lat="48.99686" lon="1.12535">
        <ele>122.71</ele>
        <time>2012-03-06T19:39:09Z</time>
      </trkpt>
      <trkpt lat="48.997" lon="1.12561">
        <ele>122.71</ele>
        <time>2012-03-06T19:39:22Z</time>
      </trkpt>
      <trkpt lat="48.9973" lon="1.1259">
        <ele>124.15</ele>
        <time>2012-03-06T19:39:38Z</time>
      </trkpt>
      <trkpt lat="48.99757" lon="1.12628">
        <ele>124.63</ele>
        <time>2012-03-06T19:39:52Z</time>
      </trkpt>
      <trkpt lat="48.99782" lon="1.12673">
        <ele>124.63</ele>
        <time>2012-03-06T19:40:07Z</time>
      </trkpt>
      <trkpt lat="48.99814" lon="1.12711">
        <ele>125.11</ele>
        <time>2012-03-06T19:40:21Z</time>
      </trkpt>
      <trkpt lat="48.99847" lon="1.12745">
        <ele>125.59</ele>
        <time>2012-03-06T19:40:32Z</time>
      </trkpt>
      <trkpt lat="48.99875" lon="1.12777">
        <ele>126.07</ele>
        <time>2012-03-06T19:40:43Z</time>
      </trkpt>
      <trkpt lat="48.99885" lon="1.12815">
        <ele>127.51</ele>
        <time>2012-03-06T19:40:53Z</time>
      </trkpt>
      <trkpt lat="48.99906" lon="1.1285">
        <ele>128.47</ele>
        <time>2012-03-06T19:41:05Z</time>
      </trkpt>
      <trkpt lat="48.99907" lon="1.12853">
        <ele>128.47</ele>
        <time>2012-03-06T19:41:07Z</time>
      </trkpt>
      <trkpt lat="48.99924" lon="1.12861">
        <ele>127.51</ele>
        <time>2012-03-06T19:41:17Z</time>
      </trkpt>
      <trkpt lat="48.99922" lon="1.12852">
        <ele>127.51</ele>
        <time>2012-03-06T19:41:21Z</time>
      </trkpt>
      <trkpt lat="48.9992" lon="1.12846">
        <ele>127.03</ele>
        <time>2012-03-06T19:41:23Z</time>
      </trkpt>
      <trkpt lat="48.99915" lon="1.12838">
        <ele>126.55</ele>
        <time>2012-03-06T19:41:26Z</time>
      </trkpt>
      <trkpt lat="48.99885" lon="1.12803">
        <ele>127.03</ele>
        <time>2012-03-06T19:41:44Z</time>
      </trkpt>
      <trkpt lat="48.99872" lon="1.12806">
        <ele>126.55</ele>
        <time>2012-03-06T19:41:49Z</time>
      </trkpt>
      <trkpt lat="48.99848" lon="1.12802">
        <ele>126.55</ele>
        <time>2012-03-06T19:41:58Z</time>
      </trkpt>
      <trkpt lat="48.99813" lon="1.12794">
        <ele>127.03</ele>
        <time>2012-03-06T19:42:14Z</time>
      </trkpt>
      <trkpt lat="48.99799" lon="1.12795">
        <ele>127.51</ele>
        <time>2012-03-06T19:42:19Z</time>
      </trkpt>
      <trkpt lat="48.99794" lon="1.12791">
        <ele>127.03</ele>
        <time>2012-03-06T19:42:21Z</time>
      </trkpt>
      <trkpt lat="48.99756" lon="1.12792">
        <ele>127.03</ele>
        <time>2012-03-06T19:42:27Z</time>
      </trkpt>
      <trkpt lat="48.99747" lon="1.1279">
        <ele>126.55</ele>
        <time>2012-03-06T19:42:29Z</time>
      </trkpt>
      <trkpt lat="48.99726" lon="1.12785">
        <ele>126.55</ele>
        <time>2012-03-06T19:42:36Z</time>
      </trkpt>
      <trkpt lat="48.99717" lon="1.12781">
        <ele>126.55</ele>
        <time>2012-03-06T19:42:40Z</time>
      </trkpt>
      <trkpt lat="48.99697" lon="1.1278">
        <ele>126.55</ele>
        <time>2012-03-06T19:42:48Z</time>
      </trkpt>
      <trkpt lat="48.99646" lon="1.1278">
        <ele>126.07</ele>
        <time>2012-03-06T19:43:02Z</time>
      </trkpt>
      <trkpt lat="48.9962" lon="1.12774">
        <ele>126.07</ele>
        <time>2012-03-06T19:43:11Z</time>
      </trkpt>
      <trkpt lat="48.99603" lon="1.12773">
        <ele>125.59</ele>
        <time>2012-03-06T19:43:16Z</time>
      </trkpt>
      <trkpt lat="48.99535" lon="1.12762">
        <ele>123.67</ele>
        <time>2012-03-06T19:43:32Z</time>
      </trkpt>
      <trkpt lat="48.99483" lon="1.12761">
        <ele>123.19</ele>
        <time>2012-03-06T19:43:49Z</time>
      </trkpt>
      <trkpt lat="48.9943" lon="1.12771">
        <ele>122.71</ele>
        <time>2012-03-06T19:44:03Z</time>
      </trkpt>
      <trkpt lat="48.99427" lon="1.12785">
        <ele>122.71</ele>
        <time>2012-03-06T19:44:11Z</time>
      </trkpt>
      <trkpt lat="48.99432" lon="1.12792">
        <ele>123.19</ele>
        <time>2012-03-06T19:44:16Z</time>
      </trkpt>
      <trkpt lat="48.99444" lon="1.12801">
        <ele>122.71</ele>
        <time>2012-03-06T19:44:23Z</time>
      </trkpt>
      <trkpt lat="48.99444" lon="1.12815">
        <ele>122.71</ele>
        <time>2012-03-06T19:44:25Z</time>
      </trkpt>
      <trkpt lat="48.99442" lon="1.12838">
        <ele>123.19</ele>
        <time>2012-03-06T19:44:29Z</time>
      </trkpt>
      <trkpt lat="48.99448" lon="1.12888">
        <ele>124.15</ele>
        <time>2012-03-06T19:44:41Z</time>
      </trkpt>
      <trkpt lat="48.99455" lon="1.12896">
        <ele>125.11</ele>
        <time>2012-03-06T19:44:48Z</time>
      </trkpt>
      <trkpt lat="48.99464" lon="1.12927">
        <ele>125.59</ele>
        <time>2012-03-06T19:44:55Z</time>
      </trkpt>
      <trkpt lat="48.99473" lon="1.12995">
        <ele>128.47</ele>
        <time>2012-03-06T19:45:08Z</time>
      </trkpt>
      <trkpt lat="48.99476" lon="1.13">
        <ele>128.95</ele>
        <time>2012-03-06T19:45:10Z</time>
      </trkpt>
      <trkpt lat="48.99489" lon="1.13029">
        <ele>129.92</ele>
        <time>2012-03-06T19:45:19Z</time>
      </trkpt>
      <trkpt lat="48.99489" lon="1.13041">
        <ele>130.4</ele>
        <time>2012-03-06T19:45:22Z</time>
      </trkpt>
      <trkpt lat="48.9949" lon="1.13051">
        <ele>130.88</ele>
        <time>2012-03-06T19:45:25Z</time>
      </trkpt>
      <trkpt lat="48.99501" lon="1.131">
        <ele>131.84</ele>
        <time>2012-03-06T19:45:40Z</time>
      </trkpt>
      <trkpt lat="48.99509" lon="1.13149">
        <ele>132.8</ele>
        <time>2012-03-06T19:45:52Z</time>
      </trkpt>
      <trkpt lat="48.99511" lon="1.1319">
        <ele>133.28</ele>
        <time>2012-03-06T19:46:03Z</time>
      </trkpt>
      <trkpt lat="48.99521" lon="1.13227">
        <ele>133.76</ele>
        <time>2012-03-06T19:46:18Z</time>
      </trkpt>
      <trkpt lat="48.99522" lon="1.1328">
        <ele>134.72</ele>
        <time>2012-03-06T19:46:29Z</time>
      </trkpt>
      <trkpt lat="48.99511" lon="1.13317">
        <ele>134.24</ele>
        <time>2012-03-06T19:46:39Z</time>
      </trkpt>
      <trkpt lat="48.99511" lon="1.1334">
        <ele>133.76</ele>
        <time>2012-03-06T19:46:48Z</time>
      </trkpt>
      <trkpt lat="48.99508" lon="1.13413">
        <ele>133.28</ele>
        <time>2012-03-06T19:46:59Z</time>
      </trkpt>
      <trkpt lat="48.99504" lon="1.13436">
        <ele>134.24</ele>
        <time>2012-03-06T19:47:03Z</time>
      </trkpt>
      <trkpt lat="48.99504" lon="1.13442">
        <ele>133.28</ele>
        <time>2012-03-06T19:47:04Z</time>
      </trkpt>
      <trkpt lat="48.99501" lon="1.13463">
        <ele>132.8</ele>
        <time>2012-03-06T19:47:07Z</time>
      </trkpt>
      <trkpt lat="48.99509" lon="1.13498">
        <ele>133.28</ele>
        <time>2012-03-06T19:47:15Z</time>
      </trkpt>
      <trkpt lat="48.99516" lon="1.13551">
        <ele>133.28</ele>
        <time>2012-03-06T19:47:28Z</time>
      </trkpt>
      <trkpt lat="48.99519" lon="1.13561">
        <ele>133.28</ele>
        <time>2012-03-06T19:47:31Z</time>
      </trkpt>
      <trkpt lat="48.99519" lon="1.13571">
        <ele>133.28</ele>
        <time>2012-03-06T19:47:34Z</time>
      </trkpt>
      <trkpt lat="48.99522" lon="1.1359">
        <ele>133.76</ele>
        <time>2012-03-06T19:47:39Z</time>
      </trkpt>
      <trkpt lat="48.99529" lon="1.13623">
        <ele>133.28</ele>
        <time>2012-03-06T19:47:49Z</time>
      </trkpt>
      <trkpt lat="48.99532" lon="1.13648">
        <ele>133.76</ele>
        <time>2012-03-06T19:47:56Z</time>
      </trkpt>
      <trkpt lat="48.99537" lon="1.13682">
        <ele>133.76</ele>
        <time>2012-03-06T19:48:05Z</time>
      </trkpt>
      <trkpt lat="48.99549" lon="1.13718">
        <ele>133.28</ele>
        <time>2012-03-06T19:48:17Z</time>
      </trkpt>
      <trkpt lat="48.99557" lon="1.13764">
        <ele>133.76</ele>
        <time>2012-03-06T19:48:29Z</time>
      </trkpt>
      <trkpt lat="48.99559" lon="1.13769">
        <ele>134.24</ele>
        <time>2012-03-06T19:48:34Z</time>
      </trkpt>
      <trkpt lat="48.99569" lon="1.13805">
        <ele>133.28</ele>
        <time>2012-03-06T19:48:41Z</time>
      </trkpt>
      <trkpt lat="48.99582" lon="1.13855">
        <ele>133.76</ele>
        <time>2012-03-06T19:48:55Z</time>
      </trkpt>
      <trkpt lat="48.99588" lon="1.1389">
        <ele>133.28</ele>
        <time>2012-03-06T19:49:04Z</time>
      </trkpt>
      <trkpt lat="48.996" lon="1.13926">
        <ele>133.28</ele>
        <time>2012-03-06T19:49:15Z</time>
      </trkpt>
      <trkpt lat="48.99622" lon="1.13954">
        <ele>132.8</ele>
        <time>2012-03-06T19:49:27Z</time>
      </trkpt>
      <trkpt lat="48.99643" lon="1.13984">
        <ele>132.32</ele>
        <time>2012-03-06T19:49:43Z</time>
      </trkpt>
      <trkpt lat="48.99644" lon="1.14">
        <ele>132.32</ele>
        <time>2012-03-06T19:49:48Z</time>
      </trkpt>
      <trkpt lat="48.99646" lon="1.14021">
        <ele>132.8</ele>
        <time>2012-03-06T19:49:52Z</time>
      </trkpt>
      <trkpt lat="48.99656" lon="1.14056">
        <ele>132.32</ele>
        <time>2012-03-06T19:50:02Z</time>
      </trkpt>
      <trkpt lat="48.99659" lon="1.14076">
        <ele>131.84</ele>
        <time>2012-03-06T19:50:07Z</time>
      </trkpt>
      <trkpt lat="48.99668" lon="1.14095">
        <ele>131.84</ele>
        <time>2012-03-06T19:50:13Z</time>
      </trkpt>
      <trkpt lat="48.99675" lon="1.14134">
        <ele>130.88</ele>
        <time>2012-03-06T19:50:27Z</time>
      </trkpt>
      <trkpt lat="48.99675" lon="1.14166">
        <ele>130.4</ele>
        <time>2012-03-06T19:50:47Z</time>
      </trkpt>
      <trkpt lat="48.9968" lon="1.14181">
        <ele>129.43</ele>
        <time>2012-03-06T19:50:59Z</time>
      </trkpt>
      <trkpt lat="48.99682" lon="1.14196">
        <ele>129.92</ele>
        <time>2012-03-06T19:51:14Z</time>
      </trkpt>
      <trkpt lat="48.99683" lon="1.14198">
        <ele>129.92</ele>
        <time>2012-03-06T19:51:15Z</time>
      </trkpt>
      <trkpt lat="48.99701" lon="1.1421">
        <ele>129.92</ele>
        <time>2012-03-06T19:51:32Z</time>
      </trkpt>
      <trkpt lat="48.99706" lon="1.14213">
        <ele>129.43</ele>
        <time>2012-03-06T19:51:50Z</time>
      </trkpt>
      <trkpt lat="48.99714" lon="1.14209">
        <ele>128.95</ele>
        <time>2012-03-06T19:52:01Z</time>
      </trkpt>
      <trkpt lat="48.99744" lon="1.14191">
        <ele>129.43</ele>
        <time>2012-03-06T19:52:16Z</time>
      </trkpt>
      <trkpt lat="48.99775" lon="1.14175">
        <ele>129.43</ele>
        <time>2012-03-06T19:52:30Z</time>
      </trkpt>
      <trkpt lat="48.99814" lon="1.14155">
        <ele>128.47</ele>
        <time>2012-03-06T19:52:45Z</time>
      </trkpt>
      <trkpt lat="48.9986" lon="1.14131">
        <ele>128.47</ele>
        <time>2012-03-06T19:53:01Z</time>
      </trkpt>
      <trkpt lat="48.99872" lon="1.14139">
        <ele>127.99</ele>
        <time>2012-03-06T19:53:10Z</time>
      </trkpt>
      <trkpt lat="48.99883" lon="1.14161">
        <ele>127.99</ele>
        <time>2012-03-06T19:53:22Z</time>
      </trkpt>
      <trkpt lat="48.99884" lon="1.14188">
        <ele>126.55</ele>
        <time>2012-03-06T19:53:35Z</time>
      </trkpt>
      <trkpt lat="48.99889" lon="1.14204">
        <ele>126.07</ele>
        <time>2012-03-06T19:53:48Z</time>
      </trkpt>
      <trkpt lat="48.99881" lon="1.14244">
        <ele>126.07</ele>
        <time>2012-03-06T19:54:01Z</time>
      </trkpt>
      <trkpt lat="48.99864" lon="1.14274">
        <ele>126.55</ele>
        <time>2012-03-06T19:54:08Z</time>
      </trkpt>
      <trkpt lat="48.99838" lon="1.14323">
        <ele>126.07</ele>
        <time>2012-03-06T19:54:21Z</time>
      </trkpt>
      <trkpt lat="48.9982" lon="1.14339">
        <ele>126.55</ele>
        <time>2012-03-06T19:54:38Z</time>
      </trkpt>
      <trkpt lat="48.99816" lon="1.14341">
        <ele>126.55</ele>
        <time>2012-03-06T19:54:39Z</time>
      </trkpt>
      <trkpt lat="48.99779" lon="1.14347">
        <ele>126.55</ele>
        <time>2012-03-06T19:54:54Z</time>
      </trkpt>
      <trkpt lat="48.99762" lon="1.14321">
        <ele>126.55</ele>
        <time>2012-03-06T19:55:09Z</time>
      </trkpt>
      <trkpt lat="48.99759" lon="1.14318">
        <ele>127.03</ele>
        <time>2012-03-06T19:55:11Z</time>
      </trkpt>
      <trkpt lat="48.99738" lon="1.14302">
        <ele>127.51</ele>
        <time>2012-03-06T19:55:25Z</time>
      </trkpt>
      <trkpt lat="48.99726" lon="1.14288">
        <ele>127.51</ele>
        <time>2012-03-06T19:55:41Z</time>
      </trkpt>
      <trkpt lat="48.99716" lon="1.14279">
        <ele>127.51</ele>
        <time>2012-03-06T19:55:46Z</time>
      </trkpt>
      <trkpt lat="48.99709" lon="1.14274">
        <ele>127.51</ele>
        <time>2012-03-06T19:55:49Z</time>
      </trkpt>
      <trkpt lat="48.99687" lon="1.14264">
        <ele>127.51</ele>
        <time>2012-03-06T19:56:06Z</time>
      </trkpt>
      <trkpt lat="48.99677" lon="1.14273">
        <ele>127.03</ele>
        <time>2012-03-06T19:56:19Z</time>
      </trkpt>
      <trkpt lat="48.99675" lon="1.14274">
        <ele>130.88</ele>
        <time>2012-03-06T19:56:23Z</time>
      </trkpt>
      <trkpt lat="48.99667" lon="1.14277">
        <ele>127.03</ele>
        <time>2012-03-06T19:56:25Z</time>
      </trkpt>
      <trkpt lat="48.99657" lon="1.14285">
        <ele>127.51</ele>
        <time>2012-03-06T19:56:37Z</time>
      </trkpt>
      <trkpt lat="48.99657" lon="1.14285">
        <ele>127.99</ele>
        <time>2012-03-06T19:56:38Z</time>
      </trkpt>
      <trkpt lat="48.99657" lon="1.14285">
        <ele>121.26</ele>
        <time>2012-03-06T19:56:42Z</time>
      </trkpt>
      <trkpt lat="48.99657" lon="1.14285">
        <ele>127.99</ele>
        <time>2012-03-06T19:56:43Z</time>
      </trkpt>
      <trkpt lat="48.99652" lon="1.14293">
        <ele>127.51</ele>
        <time>2012-03-06T19:56:50Z</time>
      </trkpt>
      <trkpt lat="48.9964" lon="1.14308">
        <ele>126.55</ele>
        <time>2012-03-06T19:56:58Z</time>
      </trkpt>
      <trkpt lat="48.9961" lon="1.14316">
        <ele>126.07</ele>
        <time>2012-03-06T19:57:11Z</time>
      </trkpt>
      <trkpt lat="48.99586" lon="1.14321">
        <ele>125.59</ele>
        <time>2012-03-06T19:57:23Z</time>
      </trkpt>
      <trkpt lat="48.99585" lon="1.14321">
        <ele>125.59</ele>
        <time>2012-03-06T19:57:27Z</time>
      </trkpt>
      <trkpt lat="48.99577" lon="1.14325">
        <ele>125.59</ele>
        <time>2012-03-06T19:57:34Z</time>
      </trkpt>
      <trkpt lat="48.99552" lon="1.14331">
        <ele>124.15</ele>
        <time>2012-03-06T19:57:49Z</time>
      </trkpt>
      <trkpt lat="48.99551" lon="1.14331">
        <ele>123.67</ele>
        <time>2012-03-06T19:58:04Z</time>
      </trkpt>
      <trkpt lat="48.99551" lon="1.14331">
        <ele>124.15</ele>
        <time>2012-03-06T19:58:07Z</time>
      </trkpt>
      <trkpt lat="48.99539" lon="1.14339">
        <ele>123.19</ele>
        <time>2012-03-06T19:58:19Z</time>
      </trkpt>
      <trkpt lat="48.99556" lon="1.14446">
        <ele>123.19</ele>
        <time>2012-03-06T19:58:34Z</time>
      </trkpt>
      <trkpt lat="48.99588" lon="1.14487">
        <ele>123.67</ele>
        <time>2012-03-06T19:58:47Z</time>
      </trkpt>
      <trkpt lat="48.99613" lon="1.14521">
        <ele>123.67</ele>
        <time>2012-03-06T19:58:59Z</time>
      </trkpt>
      <trkpt lat="48.99639" lon="1.14555">
        <ele>123.67</ele>
        <time>2012-03-06T19:59:11Z</time>
      </trkpt>
      <trkpt lat="48.99667" lon="1.14582">
        <ele>124.15</ele>
        <time>2012-03-06T19:59:22Z</time>
      </trkpt>
      <trkpt lat="48.99701" lon="1.14615">
        <ele>123.67</ele>
        <time>2012-03-06T19:59:35Z</time>
      </trkpt>
      <trkpt lat="48.9974" lon="1.14647">
        <ele>124.15</ele>
        <time>2012-03-06T19:59:47Z</time>
      </trkpt>
      <trkpt lat="48.99768" lon="1.14683">
        <ele>124.15</ele>
        <time>2012-03-06T20:00:00Z</time>
      </trkpt>
      <trkpt lat="48.99797" lon="1.14718">
        <ele>124.63</ele>
        <time>2012-03-06T20:00:13Z</time>
      </trkpt>
      <trkpt lat="48.99819" lon="1.14758">
        <ele>124.63</ele>
        <time>2012-03-06T20:00:24Z</time>
      </trkpt>
      <trkpt lat="48.99832" lon="1.14801">
        <ele>125.11</ele>
        <time>2012-03-06T20:00:35Z</time>
      </trkpt>
      <trkpt lat="48.99833" lon="1.14843">
        <ele>125.11</ele>
        <time>2012-03-06T20:00:46Z</time>
      </trkpt>
      <trkpt lat="48.99824" lon="1.14898">
        <ele>126.07</ele>
        <time>2012-03-06T20:01:00Z</time>
      </trkpt>
      <trkpt lat="48.99819" lon="1.14921">
        <ele>126.55</ele>
        <time>2012-03-06T20:01:07Z</time>
      </trkpt>
      <trkpt lat="48.99821" lon="1.14942">
        <ele>126.55</ele>
        <time>2012-03-06T20:01:12Z</time>
      </trkpt>
      <trkpt lat="48.99823" lon="1.14969">
        <ele>127.03</ele>
        <time>2012-03-06T20:01:19Z</time>
      </trkpt>
      <trkpt lat="48.99828" lon="1.15083">
        <ele>127.51</ele>
        <time>2012-03-06T20:01:31Z</time>
      </trkpt>
      <trkpt lat="48.99842" lon="1.15095">
        <ele>127.51</ele>
        <time>2012-03-06T20:01:37Z</time>
      </trkpt>
      <trkpt lat="48.9986" lon="1.15134">
        <ele>127.99</ele>
        <time>2012-03-06T20:01:48Z</time>
      </trkpt>
      <trkpt lat="48.99871" lon="1.15154">
        <ele>127.99</ele>
        <time>2012-03-06T20:01:55Z</time>
      </trkpt>
      <trkpt lat="48.99873" lon="1.15196">
        <ele>127.99</ele>
        <time>2012-03-06T20:02:03Z</time>
      </trkpt>
      <trkpt lat="48.99873" lon="1.15202">
        <ele>127.99</ele>
        <time>2012-03-06T20:02:04Z</time>
      </trkpt>
      <trkpt lat="48.9987" lon="1.15222">
        <ele>128.47</ele>
        <time>2012-03-06T20:02:09Z</time>
      </trkpt>
      <trkpt lat="48.99877" lon="1.1523">
        <ele>128.47</ele>
        <time>2012-03-06T20:02:15Z</time>
      </trkpt>
      <trkpt lat="48.99879" lon="1.15238">
        <ele>128.47</ele>
        <time>2012-03-06T20:02:17Z</time>
      </trkpt>
      <trkpt lat="48.9987" lon="1.15371">
        <ele>128.47</ele>
        <time>2012-03-06T20:02:27Z</time>
      </trkpt>
      <trkpt lat="48.99899" lon="1.15378">
        <ele>128.47</ele>
        <time>2012-03-06T20:02:37Z</time>
      </trkpt>
      <trkpt lat="48.99929" lon="1.15388">
        <ele>128.95</ele>
        <time>2012-03-06T20:02:46Z</time>
      </trkpt>
      <trkpt lat="48.99954" lon="1.15407">
        <ele>128.47</ele>
        <time>2012-03-06T20:02:54Z</time>
      </trkpt>
      <trkpt lat="48.99961" lon="1.15407">
        <ele>128.47</ele>
        <time>2012-03-06T20:02:56Z</time>
      </trkpt>
      <trkpt lat="48.99994" lon="1.15401">
        <ele>128.47</ele>
        <time>2012-03-06T20:03:06Z</time>
      </trkpt>
      <trkpt lat="48.99999" lon="1.15402">
        <ele>127.99</ele>
        <time>2012-03-06T20:03:07Z</time>
      </trkpt>
      <trkpt lat="49.00029" lon="1.15391">
        <ele>127.51</ele>
        <time>2012-03-06T20:03:16Z</time>
      </trkpt>
      <trkpt lat="49.0004" lon="1.15383">
        <ele>127.51</ele>
        <time>2012-03-06T20:03:19Z</time>
      </trkpt>
      <trkpt lat="49.00044" lon="1.15381">
        <ele>127.51</ele>
        <time>2012-03-06T20:03:20Z</time>
      </trkpt>
      <trkpt lat="49.00048" lon="1.15378">
        <ele>127.51</ele>
        <time>2012-03-06T20:03:21Z</time>
      </trkpt>
      <trkpt lat="49.00052" lon="1.15376">
        <ele>127.51</ele>
        <time>2012-03-06T20:03:22Z</time>
      </trkpt>
      <trkpt lat="49.00056" lon="1.15374">
        <ele>127.03</ele>
        <time>2012-03-06T20:03:23Z</time>
      </trkpt>
      <trkpt lat="49.00067" lon="1.15367">
        <ele>127.51</ele>
        <time>2012-03-06T20:03:26Z</time>
      </trkpt>
      <trkpt lat="49.00071" lon="1.15365">
        <ele>127.03</ele>
        <time>2012-03-06T20:03:27Z</time>
      </trkpt>
      <trkpt lat="49.00076" lon="1.15362">
        <ele>127.03</ele>
        <time>2012-03-06T20:03:28Z</time>
      </trkpt>
      <trkpt lat="49.0009" lon="1.15354">
        <ele>126.55</ele>
        <time>2012-03-06T20:03:32Z</time>
      </trkpt>
      <trkpt lat="49.00094" lon="1.15352">
        <ele>126.55</ele>
        <time>2012-03-06T20:03:33Z</time>
      </trkpt>
      <trkpt lat="49.00098" lon="1.15352">
        <ele>126.55</ele>
        <time>2012-03-06T20:03:34Z</time>
      </trkpt>
      <trkpt lat="49.00111" lon="1.15349">
        <ele>126.55</ele>
        <time>2012-03-06T20:03:38Z</time>
      </trkpt>
      <trkpt lat="49.00114" lon="1.15349">
        <ele>127.03</ele>
        <time>2012-03-06T20:03:39Z</time>
      </trkpt>
      <trkpt lat="49.00118" lon="1.15349">
        <ele>126.55</ele>
        <time>2012-03-06T20:03:40Z</time>
      </trkpt>
      <trkpt lat="49.00138" lon="1.15342">
        <ele>126.07</ele>
        <time>2012-03-06T20:03:46Z</time>
      </trkpt>
      <trkpt lat="49.00141" lon="1.15345">
        <ele>125.59</ele>
        <time>2012-03-06T20:03:47Z</time>
      </trkpt>
      <trkpt lat="49.00144" lon="1.1535">
        <ele>125.59</ele>
        <time>2012-03-06T20:03:48Z</time>
      </trkpt>
      <trkpt lat="49.00168" lon="1.15404">
        <ele>125.11</ele>
        <time>2012-03-06T20:04:00Z</time>
      </trkpt>
      <trkpt lat="49.00191" lon="1.15464">
        <ele>124.63</ele>
        <time>2012-03-06T20:04:13Z</time>
      </trkpt>
      <trkpt lat="49.00192" lon="1.1552">
        <ele>125.11</ele>
        <time>2012-03-06T20:04:20Z</time>
      </trkpt>
      <trkpt lat="49.0019" lon="1.15528">
        <ele>124.63</ele>
        <time>2012-03-06T20:04:21Z</time>
      </trkpt>
      <trkpt lat="49.00168" lon="1.15573">
        <ele>123.67</ele>
        <time>2012-03-06T20:04:28Z</time>
      </trkpt>
      <trkpt lat="49.00163" lon="1.15577">
        <ele>124.15</ele>
        <time>2012-03-06T20:04:29Z</time>
      </trkpt>
      <trkpt lat="49.0016" lon="1.1558">
        <ele>124.63</ele>
        <time>2012-03-06T20:04:30Z</time>
      </trkpt>
      <trkpt lat="49.00157" lon="1.15583">
        <ele>125.11</ele>
        <time>2012-03-06T20:04:31Z</time>
      </trkpt>
      <trkpt lat="49.00135" lon="1.15616">
        <ele>125.11</ele>
        <time>2012-03-06T20:04:38Z</time>
      </trkpt>
      <trkpt lat="49.00132" lon="1.1562">
        <ele>124.63</ele>
        <time>2012-03-06T20:04:39Z</time>
      </trkpt>
      <trkpt lat="49.00124" lon="1.15634">
        <ele>125.11</ele>
        <time>2012-03-06T20:04:42Z</time>
      </trkpt>
      <trkpt lat="49.00115" lon="1.15652">
        <ele>125.59</ele>
        <time>2012-03-06T20:04:50Z</time>
      </trkpt>
      <trkpt lat="49.00112" lon="1.15648">
        <ele>125.59</ele>
        <time>2012-03-06T20:05:01Z</time>
      </trkpt>
      <trkpt lat="49.00112" lon="1.15651">
        <ele>125.11</ele>
        <time>2012-03-06T20:05:13Z</time>
      </trkpt>
      <trkpt lat="49.00113" lon="1.1565">
        <ele>126.07</ele>
        <time>2012-03-06T20:05:24Z</time>
      </trkpt>
      <trkpt lat="49.0011" lon="1.15651">
        <ele>125.11</ele>
        <time>2012-03-06T20:05:27Z</time>
      </trkpt>
      <trkpt lat="49.00109" lon="1.15652">
        <ele>125.11</ele>
        <time>2012-03-06T20:05:28Z</time>
      </trkpt>
      <trkpt lat="49.00106" lon="1.15654">
        <ele>125.59</ele>
        <time>2012-03-06T20:05:39Z</time>
      </trkpt>
      <trkpt lat="49.00106" lon="1.15654">
        <ele>126.55</ele>
        <time>2012-03-06T20:05:46Z</time>
      </trkpt>
      <trkpt lat="49.00106" lon="1.15654">
        <ele>120.78</ele>
        <time>2012-03-06T20:05:56Z</time>
      </trkpt>
      <trkpt lat="49.00106" lon="1.15654">
        <ele>125.11</ele>
        <time>2012-03-06T20:05:57Z</time>
      </trkpt>
      <trkpt lat="49.00106" lon="1.15655">
        <ele>123.67</ele>
        <time>2012-03-06T20:06:12Z</time>
      </trkpt>
      <trkpt lat="49.00106" lon="1.15655">
        <ele>127.99</ele>
        <time>2012-03-06T20:06:14Z</time>
      </trkpt>
    </trkseg>
  </trk>
</gpx>